Aérodrome :
LOGIN :

S'inscrire | Disclaimer

   EN    FR    IT 

 










Légende :    VFR   VFR Marginal   IFR   IFR Intensif   IFR Très Intensif
Visi : 
Plafond : 
>= 8 km
>= 3000ft
5 à 8 km
1000 à 3000 ft
1500m à 5 km
500 à 1000 ft
800 à 1500m
200 à 500 ft
< 800m
< 200 ft
Symboles :   Orages  Brouillard  Fortes neiges  Fortes précipitations  Vent > 20 kt
SIGMETs :   Divers  Orages  Givrage  Turbulence  Onde Orograph.  Cendres Volcan.







- Altitude de l'aérodrome : 885 ft
- Code IATA : BAS
- Voir les cartes d'approche


LFSB - Bale-Mulhouse

DERNIER METAR :
  • 271300Z 33005KT 270V020 CAVOK 30/15 Q1018 NOSIG

METARs EXPIRÉS :
  • 271230Z 02003KT 300V080 CAVOK 29/13 Q1018 NOSIG
  • 271200Z 04004KT 300V090 CAVOK 29/13 Q1018 NOSIG
  • 271130Z 06004KT 360V130 CAVOK 28/12 Q1018 NOSIG
  • 271100Z 36003KT 230V040 CAVOK 28/12 Q1019 NOSIG
  • 271030Z VRB03KT CAVOK 27/11 Q1019 NOSIG

TAF TAF LFSB
Valide du 27 à 12h jusqu'au 28 à 12h UTC


271100Z 2712/2812 03005KT CAVOK
PROB40
TEMPO 2713/2718 FEW060TCU
Météo : +33 3 89 90 31 11
Pas de NOTAMs connus pour ce terrain.



MET'MAP, la Météo Aéronautique d'un coup d'oeil ! - Copyright ORBIFLY Décembre 2007 - Disclaimer

ORBIFLY MET'MAP TEAM :

Programmation & Développement : Alexandra Zaïnal
Conception & Développement : Baudouin d'Aumeries
Co-Programmation & Développement : Marc-Olivier Méhu
Soutien technique & logistique : Manuel Goepfert

Contact : metmap@orbifly.com




SOURCES & CREDITS :

   NOAA